Aviation Digital Data Service (ADDS)

Output produced by METARs form (1737 UTC 24 June 2019)
found at http://www.aviationweather.gov/metar/data/
 
Forecast for: OITR (ORUMIEH , IR)
Text: TAF OITR 241100Z 2412/2518 30008KT FEW035
Forecast period: 1200 UTC 24 June 2019 to 1800 UTC 25 June 2019
Forecast type: FROM: standard forecast or significant change
Winds: from the WNW (300 degrees) at 9 MPH (8 knots; 4.1 m/s)
Visibility: missing
Ceiling: at least 12,000 feet AGL
Clouds: few clouds at 3500 feet AGL
Weather: no significant weather forecast for this period
Text: TEMPO 2412/2415 09014KT
Forecast period: 1200 to 1500 UTC 24 June 2019
Forecast type: TEMPORARY: The following changes expected for less than half the time period
Winds: from the E (90 degrees) at 16 MPH (14 knots; 7.2 m/s)
Visibility: missing
Ceiling: unknown
Clouds: missing
Weather: no significant weather forecast for this period